Time;durP1;ratioP1;P1;durP2;ratioP2;P2;SDS_P1;SDS_P2;PMS_P1;PMS_P2;Temp;Humidity;BMP_temperature;BMP_pressure;BME280_temperature;BME280_humidity;BME280_pressure;Samples;Min_cycle;Max_cycle;Signal;HPM_P1;HPM_P2
2023/03/24 00:00:41;;;;;;;;;;;;;;;11.82;nan;98177.03;5030596;28;19921;-60
2023/03/24 00:03:07;;;;;;;;;;;;;;;11.73;nan;98174.75;5029466;28;20035;-60
2023/03/24 00:05:33;;;;;;;;;;;;;;;11.70;nan;98173.97;5029265;28;20372;-60
2023/03/24 00:07:58;;;;;;;;;;;;;;;11.68;nan;98168.03;5029744;28;20379;-61
2023/03/24 00:10:29;;;;;;;;;;;;;;;11.65;nan;98171.56;5028791;28;19920;-63
2023/03/24 00:12:57;;;;;;;;;;;;;;;11.61;nan;98164.00;5031225;28;20364;-59
2023/03/24 00:15:23;;;;;;;;;;;;;;;11.59;nan;98168.31;5029832;28;19974;-59
2023/03/24 00:17:49;;;;;;;;;;;;;;;11.63;nan;98164.75;5030735;28;19959;-59
2023/03/24 00:20:15;;;;;;;;;;;;;;;11.66;nan;98162.13;5029369;28;20630;-60
2023/03/24 00:22:42;;;;;;;;;;;;;;;11.61;nan;98148.59;5028088;28;20441;-60
2023/03/24 00:25:10;;;;;;;;;;;;;;;11.51;nan;98148.03;5029559;28;19921;-60
2023/03/24 00:27:37;;;;;;;;;;;;;;;11.47;nan;98149.00;5030488;28;19974;-62
2023/03/24 00:30:07;;;;;;;;;;;;;;;11.43;nan;98143.13;5037427;28;19990;-60
2023/03/24 00:32:35;;;;;;;;;;;;;;;11.45;nan;98148.22;5026734;28;20323;-60
2023/03/24 00:35:02;;;;;;;;;;;;;;;11.51;nan;98142.03;5030181;28;19927;-60
2023/03/24 00:37:28;;;;;;;;;;;;;;;11.46;nan;98140.47;5030036;28;19920;-62
2023/03/24 00:39:53;;;;;;;;;;;;;;;11.44;nan;98139.69;5035629;28;20477;-60
2023/03/24 00:42:19;;;;;;;;;;;;;;;11.39;nan;98133.00;5027739;28;19929;-61
2023/03/24 00:44:44;;;;;;;;;;;;;;;11.31;nan;98125.53;5035669;28;19921;-59
2023/03/24 00:47:10;;;;;;;;;;;;;;;11.26;nan;98127.38;5033191;28;19999;-60
2023/03/24 00:49:43;;;;;;;;;;;;;;;11.18;nan;98126.78;5027501;28;20288;-61
2023/03/24 00:52:11;;;;;;;;;;;;;;;11.12;nan;98131.25;5025382;28;19929;-60
2023/03/24 00:54:38;;;;;;;;;;;;;;;11.06;nan;98126.28;5029391;28;20370;-60
2023/03/24 00:57:05;;;;;;;;;;;;;;;11.02;nan;98123.00;5029196;28;20236;-59
2023/03/24 00:59:31;;;;;;;;;;;;;;;10.97;nan;98123.13;5027876;28;20027;-60
2023/03/24 01:01:56;;;;;;;;;;;;;;;10.97;nan;98118.00;5027068;28;20495;-60
2023/03/24 01:04:25;;;;;;;;;;;;;;;10.94;nan;98112.09;5030934;28;19992;-60
2023/03/24 01:06:51;;;;;;;;;;;;;;;11.12;nan;98100.47;5030187;28;20361;-60
2023/03/24 01:09:20;;;;;;;;;;;;;;;11.17;nan;98109.69;5038353;28;19932;-62
2023/03/24 01:11:46;;;;;;;;;;;;;;;11.22;nan;98109.56;5036335;28;19925;-60
2023/03/24 01:14:12;;;;;;;;;;;;;;;11.26;nan;98104.28;5029310;28;19927;-59
2023/03/24 01:16:38;;;;;;;;;;;;;;;11.36;nan;98107.44;5045273;28;19932;-60
2023/03/24 01:19:05;;;;;;;;;;;;;;;11.50;nan;98105.25;5034906;28;19986;-60
2023/03/24 01:21:33;;;;;;;;;;;;;;;11.52;nan;98102.66;5028203;28;19952;-61
2023/03/24 01:24:00;;;;;;;;;;;;;;;11.38;nan;98101.34;5029631;28;20302;-60
2023/03/24 01:26:27;;;;;;;;;;;;;;;11.26;nan;98098.31;5028535;28;20255;-60
2023/03/24 01:28:52;;;;;;;;;;;;;;;11.22;nan;98101.88;5028401;28;20441;-59
2023/03/24 01:31:18;;;;;;;;;;;;;;;11.16;nan;98089.25;5031592;28;19925;-60
2023/03/24 01:33:43;;;;;;;;;;;;;;;11.17;nan;98090.91;5029855;28;20010;-61
2023/03/24 01:36:09;;;;;;;;;;;;;;;11.06;nan;98092.94;5029765;28;20006;-59
2023/03/24 01:38:35;;;;;;;;;;;;;;;11.00;nan;98083.69;5029526;28;19925;-59
2023/03/24 01:41:01;;;;;;;;;;;;;;;10.95;nan;98080.44;5027501;28;19932;-61
2023/03/24 01:43:32;;;;;;;;;;;;;;;10.91;nan;98079.69;5027488;28;19921;-61
2023/03/24 01:46:28;;;;;;;;;;;;;;;10.88;nan;98077.22;5033871;28;20565;-60
2023/03/24 01:48:56;;;;;;;;;;;;;;;10.79;nan;98085.16;5013492;28;20316;-60
2023/03/24 01:51:23;;;;;;;;;;;;;;;10.73;nan;98084.50;5031112;28;19951;-60
2023/03/24 01:53:58;;;;;;;;;;;;;;;10.70;nan;98090.56;5036113;28;20047;-61
2023/03/24 01:56:24;;;;;;;;;;;;;;;10.67;nan;98085.50;5028702;28;19920;-59
2023/03/24 01:58:52;;;;;;;;;;;;;;;10.66;nan;98086.41;5030891;28;20036;-60
2023/03/24 02:01:29;;;;;;;;;;;;;;;10.61;nan;98088.25;5027816;28;19974;-59
2023/03/24 02:04:09;;;;;;;;;;;;;;;10.54;nan;98085.03;5028863;28;19927;-59
2023/03/24 02:06:39;;;;;;;;;;;;;;;10.47;nan;98086.09;5029603;28;19974;-60
2023/03/24 02:09:07;;;;;;;;;;;;;;;10.41;nan;98083.66;5042937;28;20650;-59
2023/03/24 02:11:33;;;;;;;;;;;;;;;10.38;nan;98075.22;5028431;28;20368;-62
2023/03/24 02:14:03;;;;;;;;;;;;;;;10.35;nan;98070.19;5029652;28;20314;-60
2023/03/24 02:16:43;;;;;;;;;;;;;;;10.33;nan;98075.34;5042685;28;20439;-60
2023/03/24 02:19:25;;;;;;;;;;;;;;;10.32;nan;98071.09;5025408;28;20067;-60
2023/03/24 02:22:11;;;;;;;;;;;;;;;10.35;nan;98068.47;5039451;28;19932;-60
2023/03/24 02:24:49;;;;;;;;;;;;;;;10.36;nan;98066.72;5032548;28;19920;-60
2023/03/24 02:27:37;;;;;;;;;;;;;;;10.46;nan;98070.75;5030434;28;19967;-62
2023/03/24 02:30:03;;;;;;;;;;;;;;;10.50;nan;98070.63;5031705;28;20856;-60
2023/03/24 02:32:48;;;;;;;;;;;;;;;10.54;nan;98069.63;5035807;28;19936;-60
2023/03/24 02:35:14;;;;;;;;;;;;;;;10.58;nan;98060.13;5031818;28;19927;-58
2023/03/24 02:37:51;;;;;;;;;;;;;;;10.58;nan;98067.81;5030075;28;20019;-59
2023/03/24 02:40:30;;;;;;;;;;;;;;;10.46;nan;98060.47;5032885;28;20383;-61
2023/03/24 02:43:00;;;;;;;;;;;;;;;10.38;nan;98054.72;5029902;28;20051;-59
2023/03/24 02:45:34;;;;;;;;;;;;;;;10.29;nan;98050.69;5030496;28;19921;-58
2023/03/24 02:48:02;;;;;;;;;;;;;;;10.22;nan;98050.91;5031704;28;19986;-61
2023/03/24 02:50:31;;;;;;;;;;;;;;;10.18;nan;98049.31;5041209;28;20163;-59
2023/03/24 02:52:58;;;;;;;;;;;;;;;10.15;nan;98044.22;5040434;28;20826;-59
2023/03/24 02:55:28;;;;;;;;;;;;;;;10.13;nan;98051.13;5033861;28;19920;-59
2023/03/24 02:58:02;;;;;;;;;;;;;;;10.10;nan;98039.22;5046952;28;20360;-59
2023/03/24 03:00:48;;;;;;;;;;;;;;;10.06;nan;98041.03;5034772;28;20366;-60
2023/03/24 03:03:38;;;;;;;;;;;;;;;10.02;nan;98031.75;5033447;28;19920;-60
2023/03/24 03:06:07;;;;;;;;;;;;;;;10.01;nan;98034.38;5030826;28;20359;-61
2023/03/24 03:08:35;;;;;;;;;;;;;;;10.06;nan;98035.06;5031605;28;19920;-59
2023/03/24 03:11:02;;;;;;;;;;;;;;;10.13;nan;98040.88;5032250;28;20521;-59
2023/03/24 03:13:34;;;;;;;;;;;;;;;10.15;nan;98037.41;5031351;28;19935;-59
2023/03/24 03:16:04;;;;;;;;;;;;;;;10.11;nan;98028.09;5030504;28;20463;-61
2023/03/24 03:18:39;;;;;;;;;;;;;;;10.06;nan;98024.81;5029968;28;20406;-61
2023/03/24 03:21:11;;;;;;;;;;;;;;;10.04;nan;98027.44;5030871;28;19931;-61
2023/03/24 03:23:39;;;;;;;;;;;;;;;10.16;nan;98022.88;5039757;28;19921;-61
2023/03/24 03:26:08;;;;;;;;;;;;;;;10.27;nan;98024.25;5031868;28;19927;-61
2023/03/24 03:28:37;;;;;;;;;;;;;;;10.25;nan;98020.91;5039316;28;20796;-61
2023/03/24 03:31:06;;;;;;;;;;;;;;;10.20;nan;98016.78;5032471;28;19937;-61
2023/03/24 03:33:37;;;;;;;;;;;;;;;10.23;nan;98014.16;5030686;28;19920;-61
2023/03/24 03:36:07;;;;;;;;;;;;;;;10.20;nan;98009.13;5031037;28;19927;-61
2023/03/24 03:38:33;;;;;;;;;;;;;;;10.16;nan;98012.63;5032067;28;19921;-61
2023/03/24 03:41:01;;;;;;;;;;;;;;;10.09;nan;98010.22;5027800;28;20372;-61
2023/03/24 03:43:32;;;;;;;;;;;;;;;10.08;nan;98015.38;5020810;28;19967;-60
2023/03/24 03:45:59;;;;;;;;;;;;;;;10.19;nan;98020.22;5033334;28;19924;-61
2023/03/24 03:48:30;;;;;;;;;;;;;;;10.19;nan;98022.78;5030208;28;19925;-61
2023/03/24 03:50:55;;;;;;;;;;;;;;;10.20;nan;98019.34;5038549;28;19978;-61
2023/03/24 03:53:25;;;;;;;;;;;;;;;10.20;nan;98021.91;5034236;28;19921;-61
2023/03/24 03:55:52;;;;;;;;;;;;;;;10.13;nan;98017.81;5034779;28;19960;-61
2023/03/24 03:58:18;;;;;;;;;;;;;;;10.07;nan;98022.22;5032580;28;19920;-63
2023/03/24 04:00:51;;;;;;;;;;;;;;;10.03;nan;98023.19;5037519;28;19929;-61
2023/03/24 04:03:39;;;;;;;;;;;;;;;10.01;nan;98024.94;5026311;28;19929;-61
2023/03/24 04:06:16;;;;;;;;;;;;;;;10.02;nan;98020.66;5038710;28;20303;-69
2023/03/24 04:08:49;;;;;;;;;;;;;;;10.03;nan;98025.75;5030677;28;19932;-59
2023/03/24 04:11:18;;;;;;;;;;;;;;;10.11;nan;98028.09;5027521;28;20522;-58
2023/03/24 04:14:13;;;;;;;;;;;;;;;10.18;nan;98032.22;5014609;28;19924;-58
2023/03/24 04:17:19;;;;;;;;;;;;;;;10.21;nan;98038.97;5029487;28;20426;-58
2023/03/24 04:19:54;;;;;;;;;;;;;;;10.27;nan;98036.25;5032989;28;19921;-61
2023/03/24 04:22:39;;;;;;;;;;;;;;;10.24;nan;98044.84;5037731;28;19925;-59
2023/03/24 04:25:19;;;;;;;;;;;;;;;10.19;nan;98050.97;5037388;28;20244;-58
2023/03/24 04:27:48;;;;;;;;;;;;;;;10.16;nan;98040.81;5031024;28;19927;-58
2023/03/24 04:30:50;;;;;;;;;;;;;;;10.51;nan;98036.41;5032275;28;20238;-59
2023/03/24 04:33:21;;;;;;;;;;;;;;;10.48;nan;98027.97;4983287;28;20355;-61
2023/03/24 04:35:56;;;;;;;;;;;;;;;10.43;nan;98025.53;5027799;28;20450;-60
2023/03/24 04:38:37;;;;;;;;;;;;;;;10.30;nan;98031.91;5033224;28;19920;-61
2023/03/24 04:41:16;;;;;;;;;;;;;;;10.21;nan;98038.97;5032542;28;19958;-61
2023/03/24 04:43:44;;;;;;;;;;;;;;;10.13;nan;98036.59;5043766;28;19921;-61
2023/03/24 04:46:09;;;;;;;;;;;;;;;10.08;nan;98036.72;5029710;28;20441;-61
2023/03/24 04:48:50;;;;;;;;;;;;;;;10.05;nan;98039.38;5027186;28;20302;-61
2023/03/24 04:51:36;;;;;;;;;;;;;;;10.12;nan;98031.50;5028050;28;19932;-60
2023/03/24 04:54:04;;;;;;;;;;;;;;;10.07;nan;98034.19;5015202;28;20328;-61
2023/03/24 04:56:42;;;;;;;;;;;;;;;10.05;nan;98035.97;5035932;28;20452;-60
2023/03/24 04:59:27;;;;;;;;;;;;;;;10.06;nan;98029.94;5044405;28;19943;-60
2023/03/24 05:01:53;;;;;;;;;;;;;;;10.02;nan;98021.50;5034646;28;20461;-59
2023/03/24 05:04:30;;;;;;;;;;;;;;;10.01;nan;98022.38;5040402;28;19921;-62
2023/03/24 05:07:03;;;;;;;;;;;;;;;10.00;nan;98017.31;5033712;28;20442;-60
2023/03/24 05:09:30;;;;;;;;;;;;;;;9.97;nan;98025.91;5035592;28;19990;-62
2023/03/24 05:11:57;;;;;;;;;;;;;;;9.93;nan;98028.59;5017969;28;19917;-66
2023/03/24 05:14:23;;;;;;;;;;;;;;;9.93;nan;98036.28;5032948;28;20398;-61
2023/03/24 05:16:49;;;;;;;;;;;;;;;9.97;nan;98033.56;5030091;28;20372;-60
2023/03/24 05:19:17;;;;;;;;;;;;;;;10.01;nan;98036.94;5031437;28;19932;-60
2023/03/24 05:21:43;;;;;;;;;;;;;;;10.00;nan;98035.25;5014060;28;19925;-61
2023/03/24 05:24:09;;;;;;;;;;;;;;;10.01;nan;98031.81;5045062;28;19940;-60
2023/03/24 05:26:35;;;;;;;;;;;;;;;10.01;nan;98042.03;5033812;28;19944;-63
2023/03/24 05:29:13;;;;;;;;;;;;;;;9.98;nan;98040.38;5038080;28;19924;-60
2023/03/24 05:31:39;;;;;;;;;;;;;;;10.05;nan;98036.81;5050198;28;20152;-61
2023/03/24 05:34:09;;;;;;;;;;;;;;;10.08;nan;98039.28;5009033;28;19925;-61
2023/03/24 05:36:57;;;;;;;;;;;;;;;10.11;nan;98030.66;5035851;28;20005;-59
2023/03/24 05:39:23;;;;;;;;;;;;;;;10.16;nan;98030.56;5036197;28;19978;-60
2023/03/24 05:41:55;;;;;;;;;;;;;;;10.17;nan;98030.53;5024909;28;19951;-60
2023/03/24 05:44:21;;;;;;;;;;;;;;;10.19;nan;98030.47;5045186;28;19928;-61
2023/03/24 05:46:59;;;;;;;;;;;;;;;10.23;nan;98032.91;5020822;28;19928;-60
2023/03/24 05:49:25;;;;;;;;;;;;;;;10.30;nan;98034.44;5031029;28;19940;-60
2023/03/24 05:51:52;;;;;;;;;;;;;;;10.35;nan;98027.47;5027365;28;20287;-60
2023/03/24 05:54:18;;;;;;;;;;;;;;;10.42;nan;98015.31;5037459;28;19955;-61
2023/03/24 05:56:46;;;;;;;;;;;;;;;10.48;nan;98020.28;5042410;28;19925;-62
2023/03/24 05:59:31;;;;;;;;;;;;;;;10.53;nan;98016.69;5031448;28;19972;-60
2023/03/24 06:02:09;;;;;;;;;;;;;;;10.58;nan;98021.69;5035145;28;20411;-60
2023/03/24 06:04:56;;;;;;;;;;;;;;;10.62;nan;98015.59;5032524;28;19952;-62
2023/03/24 06:07:25;;;;;;;;;;;;;;;10.68;nan;98018.00;5027843;28;20130;-58
2023/03/24 06:09:51;;;;;;;;;;;;;;;10.72;nan;98019.56;5027431;28;19921;-62
2023/03/24 06:12:20;;;;;;;;;;;;;;;10.78;nan;98014.25;5030644;28;19929;-61
2023/03/24 06:14:59;;;;;;;;;;;;;;;10.89;nan;98008.81;5030579;28;19925;-61
2023/03/24 06:17:28;;;;;;;;;;;;;;;10.93;nan;98006.13;5027578;28;19991;-59
2023/03/24 06:20:01;;;;;;;;;;;;;;;10.98;nan;98000.84;5033030;28;19927;-60
2023/03/24 06:22:41;;;;;;;;;;;;;;;11.06;nan;97998.88;5031461;28;20402;-61
2023/03/24 06:25:10;;;;;;;;;;;;;;;11.18;nan;97995.94;5032037;28;20387;-61
2023/03/24 06:27:41;;;;;;;;;;;;;;;11.31;nan;97992.09;5046328;28;20004;-61
2023/03/24 06:30:07;;;;;;;;;;;;;;;11.53;nan;97991.38;5036348;28;20268;-62
2023/03/24 06:32:33;;;;;;;;;;;;;;;11.69;nan;97980.56;5032183;28;19979;-61
2023/03/24 06:34:59;;;;;;;;;;;;;;;11.81;nan;97974.19;5039199;28;20337;-66
2023/03/24 06:37:37;;;;;;;;;;;;;;;12.02;nan;97960.59;5018036;28;19972;-63
2023/03/24 06:40:09;;;;;;;;;;;;;;;12.13;nan;97958.50;5046972;28;19963;-62
2023/03/24 06:42:35;;;;;;;;;;;;;;;12.30;nan;97950.19;5033016;28;20366;-63
2023/03/24 06:45:01;;;;;;;;;;;;;;;12.35;nan;97954.22;5032995;28;20467;-62
2023/03/24 06:47:27;;;;;;;;;;;;;;;12.53;nan;97951.88;5039795;28;20397;-60
2023/03/24 06:49:52;;;;;;;;;;;;;;;12.71;nan;97956.31;5031629;28;20388;-60
2023/03/24 06:52:18;;;;;;;;;;;;;;;12.76;nan;97965.56;5028831;28;20046;-61
2023/03/24 06:54:43;;;;;;;;;;;;;;;12.80;nan;97966.25;5031175;28;19928;-59
2023/03/24 06:57:08;;;;;;;;;;;;;;;12.94;nan;97947.72;5030119;28;19937;-60
2023/03/24 07:00:00;;;;;;;;;;;;;;;13.12;nan;97937.56;5031566;28;20297;-66
2023/03/24 07:02:34;;;;;;;;;;;;;;;13.13;nan;97936.66;5035259;28;19925;-61
2023/03/24 07:05:04;;;;;;;;;;;;;;;13.28;nan;97942.94;5026890;28;19982;-61
2023/03/24 07:07:40;;;;;;;;;;;;;;;13.41;nan;97943.28;5025871;28;20371;-61
2023/03/24 07:10:29;;;;;;;;;;;;;;;13.50;nan;97938.56;5023920;28;19932;-60
2023/03/24 07:12:55;;;;;;;;;;;;;;;13.71;nan;97934.22;5044167;28;19921;-61
2023/03/24 07:15:20;;;;;;;;;;;;;;;13.85;nan;97937.06;5030991;28;19925;-61
2023/03/24 07:17:46;;;;;;;;;;;;;;;14.14;nan;97933.22;5032647;28;19920;-61
2023/03/24 07:20:31;;;;;;;;;;;;;;;14.39;nan;97930.41;5027719;28;19925;-61
2023/03/24 07:23:06;;;;;;;;;;;;;;;14.70;nan;97933.25;5030587;28;20473;-60
2023/03/24 07:25:52;;;;;;;;;;;;;;;15.05;nan;97923.84;5013743;28;20124;-60
2023/03/24 07:28:38;;;;;;;;;;;;;;;15.33;nan;97911.25;5028821;28;20257;-61
2023/03/24 07:31:05;;;;;;;;;;;;;;;15.46;nan;97920.06;5034281;28;19932;-68
2023/03/24 07:33:31;;;;;;;;;;;;;;;15.58;nan;97915.22;5031068;28;20049;-60
2023/03/24 07:35:58;;;;;;;;;;;;;;;15.91;nan;97923.84;5027736;28;20047;-57
2023/03/24 07:38:25;;;;;;;;;;;;;;;16.25;nan;97917.75;5025155;28;19920;-58
2023/03/24 07:40:56;;;;;;;;;;;;;;;16.57;nan;97910.81;5027856;28;19924;-59
2023/03/24 07:43:22;;;;;;;;;;;;;;;16.57;nan;97916.00;5013731;28;20333;-61
2023/03/24 07:45:47;;;;;;;;;;;;;;;16.62;nan;97912.28;5026262;28;19925;-59
2023/03/24 07:48:12;;;;;;;;;;;;;;;16.54;nan;97906.66;5036831;28;19925;-61
2023/03/24 07:50:39;;;;;;;;;;;;;;;16.60;nan;97903.75;5029556;28;20429;-59
2023/03/24 07:53:20;;;;;;;;;;;;;;;16.80;nan;97905.28;5033593;28;19929;-59
2023/03/24 07:55:45;;;;;;;;;;;;;;;16.83;nan;97899.91;5031122;28;19931;-59
2023/03/24 07:58:15;;;;;;;;;;;;;;;16.81;nan;97910.34;5033224;28;20148;-59
2023/03/24 08:00:56;;;;;;;;;;;;;;;16.59;nan;97907.25;5038692;28;19931;-59
2023/03/24 08:03:30;;;;;;;;;;;;;;;16.61;nan;97902.84;5035237;28;20023;-57
2023/03/24 08:06:09;;;;;;;;;;;;;;;16.67;nan;97899.94;5032148;28;19924;-58
2023/03/24 08:08:48;;;;;;;;;;;;;;;16.72;nan;97890.13;5028464;28;19921;-59
2023/03/24 08:11:13;;;;;;;;;;;;;;;16.65;nan;97891.41;5029223;28;20054;-59
2023/03/24 08:13:39;;;;;;;;;;;;;;;16.79;nan;97880.28;5029267;28;20459;-59
2023/03/24 08:16:05;;;;;;;;;;;;;;;16.95;nan;97869.91;5029313;28;20362;-59
2023/03/24 08:18:33;;;;;;;;;;;;;;;16.61;nan;97883.88;5034828;28;20011;-59
2023/03/24 08:21:00;;;;;;;;;;;;;;;16.82;nan;97883.53;5029344;28;19925;-58
2023/03/24 08:23:26;;;;;;;;;;;;;;;16.97;nan;97881.84;5029175;28;20264;-58
2023/03/24 08:25:51;;;;;;;;;;;;;;;16.98;nan;97875.72;5029021;28;19925;-59
2023/03/24 08:28:18;;;;;;;;;;;;;;;17.04;nan;97879.75;5028785;28;19928;-61
2023/03/24 08:30:44;;;;;;;;;;;;;;;17.13;nan;97892.16;5027168;28;20011;-59
2023/03/24 08:33:10;;;;;;;;;;;;;;;17.08;nan;97884.66;5028766;28;19958;-59
2023/03/24 08:35:39;;;;;;;;;;;;;;;17.09;nan;97895.84;5026020;28;20225;-60
2023/03/24 08:38:05;;;;;;;;;;;;;;;17.00;nan;97904.16;5028548;28;20352;-58
2023/03/24 08:40:33;;;;;;;;;;;;;;;17.03;nan;97899.63;5028041;28;20024;-59
2023/03/24 08:43:00;;;;;;;;;;;;;;;17.08;nan;97900.19;5034130;28;20023;-59
2023/03/24 08:45:27;;;;;;;;;;;;;;;17.08;nan;97891.59;5031064;28;20019;-58
2023/03/24 08:47:53;;;;;;;;;;;;;;;17.08;nan;97907.97;5029708;28;19925;-59
2023/03/24 08:50:20;;;;;;;;;;;;;;;17.16;nan;97917.88;5028655;28;19986;-58
2023/03/24 08:52:47;;;;;;;;;;;;;;;17.29;nan;97911.94;5029026;28;19931;-58
2023/03/24 08:55:13;;;;;;;;;;;;;;;17.20;nan;97909.84;5029361;28;19925;-58
2023/03/24 08:57:38;;;;;;;;;;;;;;;17.20;nan;97902.09;5029107;28;19916;-59
2023/03/24 09:00:13;;;;;;;;;;;;;;;17.44;nan;97912.78;5029395;28;20371;-58
2023/03/24 09:02:46;;;;;;;;;;;;;;;17.43;nan;97912.88;5028718;28;20498;-60
2023/03/24 09:05:14;;;;;;;;;;;;;;;17.66;nan;97918.41;5029255;28;19920;-60
2023/03/24 09:07:39;;;;;;;;;;;;;;;17.75;nan;97899.72;5028791;28;19935;-58
2023/03/24 09:10:06;;;;;;;;;;;;;;;17.88;nan;97899.00;5031732;28;20451;-59
2023/03/24 09:12:32;;;;;;;;;;;;;;;17.91;nan;97911.81;5034162;28;19921;-59
2023/03/24 09:14:58;;;;;;;;;;;;;;;18.03;nan;97914.50;5029532;28;19920;-59
2023/03/24 09:17:24;;;;;;;;;;;;;;;18.20;nan;97908.28;5028503;28;19920;-59
2023/03/24 09:19:49;;;;;;;;;;;;;;;18.21;nan;97909.91;5025501;28;19968;-61
2023/03/24 09:22:15;;;;;;;;;;;;;;;18.12;nan;97907.91;5026263;28;20340;-60
2023/03/24 09:24:40;;;;;;;;;;;;;;;18.05;nan;97904.84;5026211;28;20616;-60
2023/03/24 09:27:06;;;;;;;;;;;;;;;18.26;nan;97907.88;5026011;28;20008;-58
2023/03/24 09:29:31;;;;;;;;;;;;;;;18.50;nan;97915.94;5027382;28;20006;-60
2023/03/24 09:31:56;;;;;;;;;;;;;;;18.47;nan;97911.75;5036533;28;19925;-59
2023/03/24 09:34:23;;;;;;;;;;;;;;;18.27;nan;97923.38;5033988;28;20324;-59
2023/03/24 09:36:49;;;;;;;;;;;;;;;18.03;nan;97919.69;5032054;28;19924;-59
2023/03/24 09:39:15;;;;;;;;;;;;;;;18.06;nan;97916.06;5032630;28;19927;-59
2023/03/24 09:41:43;;;;;;;;;;;;;;;18.38;nan;97917.50;5036086;28;19921;-59
2023/03/24 09:44:18;;;;;;;;;;;;;;;18.60;nan;97915.28;5034385;28;20008;-61
2023/03/24 09:46:46;;;;;;;;;;;;;;;18.66;nan;97917.50;5035150;28;19921;-61
2023/03/24 09:49:15;;;;;;;;;;;;;;;18.66;nan;97917.50;5035947;28;19925;-61
2023/03/24 09:51:45;;;;;;;;;;;;;;;18.57;nan;97920.66;5035353;28;20000;-62
2023/03/24 09:54:30;;;;;;;;;;;;;;;18.74;nan;97916.16;5041248;28;20386;-62
2023/03/24 09:56:56;;;;;;;;;;;;;;;18.88;nan;97909.19;5023619;28;20019;-60
2023/03/24 09:59:36;;;;;;;;;;;;;;;18.97;nan;97911.16;5035018;28;20346;-60
2023/03/24 10:02:09;;;;;;;;;;;;;;;19.18;nan;97909.78;5034728;28;19978;-59
2023/03/24 10:04:35;;;;;;;;;;;;;;;19.35;nan;97902.66;5032489;28;19920;-60
2023/03/24 10:07:13;;;;;;;;;;;;;;;19.29;nan;97905.66;5032498;28;20265;-60
2023/03/24 10:09:38;;;;;;;;;;;;;;;19.40;nan;97903.16;5035913;28;19972;-59
2023/03/24 10:12:04;;;;;;;;;;;;;;;19.15;nan;97901.34;5035497;28;20039;-59
2023/03/24 10:14:43;;;;;;;;;;;;;;;19.32;nan;97890.69;5032800;28;20395;-60
2023/03/24 10:17:32;;;;;;;;;;;;;;;19.45;nan;97898.53;5031669;28;20324;-61
2023/03/24 10:20:02;;;;;;;;;;;;;;;19.49;nan;97903.44;5030263;28;19928;-60
2023/03/24 10:22:49;;;;;;;;;;;;;;;19.46;nan;97898.44;5031832;28;20024;-60
2023/03/24 10:25:28;;;;;;;;;;;;;;;19.77;nan;97899.84;5032088;28;19921;-60
2023/03/24 10:27:58;;;;;;;;;;;;;;;19.94;nan;97896.09;5032295;28;19921;-60
2023/03/24 10:30:32;;;;;;;;;;;;;;;19.59;nan;97893.25;5033135;28;19927;-60
2023/03/24 10:32:57;;;;;;;;;;;;;;;19.68;nan;97892.66;5034975;28;19951;-60
2023/03/24 10:35:32;;;;;;;;;;;;;;;19.89;nan;97895.56;5031339;28;20047;-61
2023/03/24 10:38:02;;;;;;;;;;;;;;;19.99;nan;97896.56;5032422;28;19927;-60
2023/03/24 10:40:29;;;;;;;;;;;;;;;20.16;nan;97891.03;5033006;28;19986;-60
2023/03/24 10:42:57;;;;;;;;;;;;;;;20.00;nan;97890.44;5031021;28;19920;-61
2023/03/24 10:45:29;;;;;;;;;;;;;;;20.12;nan;97891.34;5033444;28;20325;-61
2023/03/24 10:47:59;;;;;;;;;;;;;;;20.16;nan;97892.81;5029115;28;19932;-61
2023/03/24 10:50:27;;;;;;;;;;;;;;;20.22;nan;97890.63;5030878;28;19971;-59
2023/03/24 10:52:54;;;;;;;;;;;;;;;20.07;nan;97887.31;5032029;28;19928;-61
2023/03/24 10:55:22;;;;;;;;;;;;;;;20.24;nan;97886.13;5037218;28;20451;-60
2023/03/24 10:57:54;;;;;;;;;;;;;;;20.29;nan;97889.28;5032534;28;20253;-61
2023/03/24 11:00:25;;;;;;;;;;;;;;;20.26;nan;97891.25;5030988;28;19932;-60
2023/03/24 11:03:03;;;;;;;;;;;;;;;20.25;nan;97887.78;5029286;28;20415;-62
2023/03/24 11:05:33;;;;;;;;;;;;;;;20.28;nan;97882.41;5027942;28;19962;-60
2023/03/24 11:08:20;;;;;;;;;;;;;;;19.98;nan;97877.56;5029182;28;20479;-63
2023/03/24 11:10:45;;;;;;;;;;;;;;;20.25;nan;97876.56;5030647;28;19921;-59
2023/03/24 11:13:19;;;;;;;;;;;;;;;20.40;nan;97871.16;5031048;28;20434;-59
2023/03/24 11:16:02;;;;;;;;;;;;;;;20.17;nan;97865.84;5031179;28;19928;-59
2023/03/24 11:18:28;;;;;;;;;;;;;;;19.91;nan;97862.44;5031041;28;19939;-59
2023/03/24 11:21:04;;;;;;;;;;;;;;;20.18;nan;97855.34;5032037;28;20384;-58
2023/03/24 11:23:33;;;;;;;;;;;;;;;20.27;nan;97859.06;5031566;28;19947;-62
2023/03/24 11:26:05;;;;;;;;;;;;;;;20.32;nan;97852.63;5031715;28;19920;-58
2023/03/24 11:28:36;;;;;;;;;;;;;;;20.03;nan;97856.38;5032522;28;20299;-58
2023/03/24 11:31:05;;;;;;;;;;;;;;;20.36;nan;97850.66;5036539;28;20577;-59
2023/03/24 11:33:32;;;;;;;;;;;;;;;20.39;nan;97860.84;5030550;28;19925;-60
2023/03/24 11:35:59;;;;;;;;;;;;;;;20.08;nan;97859.50;5030314;28;19921;-59
2023/03/24 11:38:33;;;;;;;;;;;;;;;20.44;nan;97850.94;5031145;28;19921;-60
2023/03/24 11:41:01;;;;;;;;;;;;;;;20.64;nan;97850.31;5029423;28;19948;-60
2023/03/24 11:43:27;;;;;;;;;;;;;;;20.77;nan;97847.66;5028723;28;19978;-60
2023/03/24 11:46:03;;;;;;;;;;;;;;;20.80;nan;97842.22;5030247;28;19920;-60
2023/03/24 11:48:38;;;;;;;;;;;;;;;21.08;nan;97847.09;5027013;28;19924;-60
2023/03/24 11:51:04;;;;;;;;;;;;;;;21.29;nan;97842.91;5027398;28;19925;-59
2023/03/24 11:53:50;;;;;;;;;;;;;;;21.36;nan;97841.50;5026258;28;20234;-60
2023/03/24 11:56:21;;;;;;;;;;;;;;;21.24;nan;97842.44;5027195;28;20364;-58
2023/03/24 11:58:55;;;;;;;;;;;;;;;21.10;nan;97841.75;5029582;28;19921;-59
2023/03/24 12:01:20;;;;;;;;;;;;;;;21.36;nan;97830.25;5031301;28;19924;-59
2023/03/24 12:03:46;;;;;;;;;;;;;;;21.23;nan;97834.72;5037423;28;20457;-59
2023/03/24 12:06:38;;;;;;;;;;;;;;;21.35;nan;97831.19;5030501;28;20422;-59
2023/03/24 12:09:10;;;;;;;;;;;;;;;21.36;nan;97828.47;5025823;28;19927;-59
2023/03/24 12:11:48;;;;;;;;;;;;;;;21.33;nan;97826.09;5029643;28;20476;-59
2023/03/24 12:14:18;;;;;;;;;;;;;;;21.64;nan;97821.16;5029520;28;20461;-59
2023/03/24 12:16:43;;;;;;;;;;;;;;;21.73;nan;97826.47;5030109;28;19927;-60
2023/03/24 12:19:27;;;;;;;;;;;;;;;21.72;nan;97822.25;5030380;28;19920;-58
2023/03/24 12:22:05;;;;;;;;;;;;;;;21.83;nan;97817.00;5028704;28;20310;-59
2023/03/24 12:24:37;;;;;;;;;;;;;;;21.96;nan;97816.09;5025479;28;20003;-59
2023/03/24 12:27:02;;;;;;;;;;;;;;;21.84;nan;97817.84;5027603;28;19931;-59
2023/03/24 12:29:42;;;;;;;;;;;;;;;21.82;nan;97820.56;5028928;28;20439;-58
2023/03/24 12:32:08;;;;;;;;;;;;;;;21.98;nan;97811.59;5045088;28;19982;-60
2023/03/24 12:34:33;;;;;;;;;;;;;;;21.65;nan;97814.97;5029080;28;19924;-60
2023/03/24 12:37:02;;;;;;;;;;;;;;;21.91;nan;97819.03;5030943;28;20013;-60
2023/03/24 12:39:30;;;;;;;;;;;;;;;21.35;nan;97815.53;5029275;28;19920;-58
2023/03/24 12:42:14;;;;;;;;;;;;;;;21.46;nan;97820.78;5026417;28;19920;-61
2023/03/24 12:45:03;;;;;;;;;;;;;;;21.56;nan;97816.50;5027485;28;19925;-60
2023/03/24 12:47:32;;;;;;;;;;;;;;;21.82;nan;97809.28;5027647;28;19921;-60
2023/03/24 12:50:22;;;;;;;;;;;;;;;21.68;nan;97809.53;5032276;28;20183;-58
2023/03/24 12:53:06;;;;;;;;;;;;;;;21.73;nan;97815.22;5027945;28;20340;-59
2023/03/24 12:55:41;;;;;;;;;;;;;;;21.91;nan;97813.81;5028040;28;19998;-59
2023/03/24 12:58:11;;;;;;;;;;;;;;;21.85;nan;97819.50;5028262;28;19982;-62
2023/03/24 13:00:57;;;;;;;;;;;;;;;22.07;nan;97808.22;5025763;28;19929;-60
2023/03/24 13:03:29;;;;;;;;;;;;;;;22.29;nan;97806.44;5026831;28;19927;-59
2023/03/24 13:05:57;;;;;;;;;;;;;;;22.44;nan;97809.63;5024487;28;20400;-59
2023/03/24 13:08:28;;;;;;;;;;;;;;;22.44;nan;97798.31;5026122;28;20483;-59
2023/03/24 13:11:01;;;;;;;;;;;;;;;22.50;nan;97798.66;5025657;28;20325;-59
2023/03/24 13:13:30;;;;;;;;;;;;;;;22.63;nan;97791.47;5025053;28;19921;-58
2023/03/24 13:15:59;;;;;;;;;;;;;;;22.08;nan;97797.69;5023049;28;20087;-59
2023/03/24 13:18:34;;;;;;;;;;;;;;;22.07;nan;97795.19;5028308;28;19975;-59
2023/03/24 13:21:03;;;;;;;;;;;;;;;21.77;nan;97790.53;5024385;28;20019;-58
2023/03/24 13:23:37;;;;;;;;;;;;;;;21.82;nan;97796.25;5028859;28;19921;-60
2023/03/24 13:26:09;;;;;;;;;;;;;;;21.66;nan;97796.59;5026822;28;19920;-60
2023/03/24 13:28:39;;;;;;;;;;;;;;;22.02;nan;97792.13;5028582;28;19921;-59